sensor_id;sensor_type;location;lat;lon;timestamp;P1;durP1;ratioP1;P2;durP2;ratioP2
69551;SDS011;63774;45.292;11.784;2022-11-27T00:00:41;18.10;;;11.60;;
69551;SDS011;63774;45.292;11.784;2022-11-27T00:03:06;18.80;;;12.10;;
69551;SDS011;63774;45.292;11.784;2022-11-27T00:05:32;19.10;;;12.60;;
69551;SDS011;63774;45.292;11.784;2022-11-27T00:07:57;19.20;;;11.90;;
69551;SDS011;63774;45.292;11.784;2022-11-27T00:10:23;17.20;;;12.20;;
69551;SDS011;63774;45.292;11.784;2022-11-27T00:12:48;16.90;;;11.40;;
69551;SDS011;63774;45.292;11.784;2022-11-27T00:15:14;18.30;;;11.60;;
69551;SDS011;63774;45.292;11.784;2022-11-27T00:17:39;18.20;;;11.60;;
69551;SDS011;63774;45.292;11.784;2022-11-27T00:20:05;20.40;;;11.70;;
69551;SDS011;63774;45.292;11.784;2022-11-27T00:22:31;19.80;;;11.50;;
69551;SDS011;63774;45.292;11.784;2022-11-27T00:24:56;17.30;;;10.60;;
69551;SDS011;63774;45.292;11.784;2022-11-27T00:27:22;17.40;;;11.00;;
69551;SDS011;63774;45.292;11.784;2022-11-27T00:29:47;17.20;;;10.10;;
69551;SDS011;63774;45.292;11.784;2022-11-27T00:32:13;16.30;;;10.80;;
69551;SDS011;63774;45.292;11.784;2022-11-27T00:34:38;15.80;;;10.40;;
69551;SDS011;63774;45.292;11.784;2022-11-27T00:37:04;17.90;;;11.30;;
69551;SDS011;63774;45.292;11.784;2022-11-27T00:39:31;16.50;;;10.60;;
69551;SDS011;63774;45.292;11.784;2022-11-27T00:41:57;16.10;;;10.20;;
69551;SDS011;63774;45.292;11.784;2022-11-27T00:44:22;15.60;;;10.60;;
69551;SDS011;63774;45.292;11.784;2022-11-27T00:46:48;14.50;;;10.00;;
69551;SDS011;63774;45.292;11.784;2022-11-27T00:49:13;15.80;;;10.60;;
69551;SDS011;63774;45.292;11.784;2022-11-27T00:51:39;15.10;;;10.00;;
69551;SDS011;63774;45.292;11.784;2022-11-27T00:54:05;17.10;;;10.60;;
69551;SDS011;63774;45.292;11.784;2022-11-27T00:56:32;14.60;;;10.30;;
69551;SDS011;63774;45.292;11.784;2022-11-27T00:58:59;16.10;;;10.20;;
69551;SDS011;63774;45.292;11.784;2022-11-27T01:01:26;16.40;;;9.90;;
69551;SDS011;63774;45.292;11.784;2022-11-27T01:03:54;16.30;;;10.10;;
69551;SDS011;63774;45.292;11.784;2022-11-27T01:06:21;16.90;;;9.90;;
69551;SDS011;63774;45.292;11.784;2022-11-27T01:08:47;16.20;;;10.20;;
69551;SDS011;63774;45.292;11.784;2022-11-27T01:11:17;15.20;;;9.80;;
69551;SDS011;63774;45.292;11.784;2022-11-27T01:13:45;16.50;;;10.00;;
69551;SDS011;63774;45.292;11.784;2022-11-27T01:16:12;14.00;;;9.60;;
69551;SDS011;63774;45.292;11.784;2022-11-27T01:18:48;13.40;;;9.30;;
69551;SDS011;63774;45.292;11.784;2022-11-27T01:21:16;16.20;;;9.30;;
69551;SDS011;63774;45.292;11.784;2022-11-27T01:23:43;14.40;;;9.50;;
69551;SDS011;63774;45.292;11.784;2022-11-27T01:26:09;15.60;;;9.70;;
69551;SDS011;63774;45.292;11.784;2022-11-27T01:28:35;14.70;;;9.50;;
69551;SDS011;63774;45.292;11.784;2022-11-27T01:31:08;13.70;;;9.20;;
69551;SDS011;63774;45.292;11.784;2022-11-27T01:33:37;16.00;;;9.10;;
69551;SDS011;63774;45.292;11.784;2022-11-27T01:36:04;15.40;;;9.40;;
69551;SDS011;63774;45.292;11.784;2022-11-27T01:38:31;15.90;;;9.40;;
69551;SDS011;63774;45.292;11.784;2022-11-27T01:48:48;11.80;;;8.30;;
69551;SDS011;63774;45.292;11.784;2022-11-27T01:51:16;12.80;;;8.00;;
69551;SDS011;63774;45.292;11.784;2022-11-27T01:53:43;14.10;;;8.60;;
69551;SDS011;63774;45.292;11.784;2022-11-27T01:56:08;12.60;;;8.30;;
69551;SDS011;63774;45.292;11.784;2022-11-27T01:58:34;12.50;;;8.00;;
69551;SDS011;63774;45.292;11.784;2022-11-27T02:01:00;13.00;;;8.10;;
69551;SDS011;63774;45.292;11.784;2022-11-27T02:03:26;12.00;;;8.00;;
69551;SDS011;63774;45.292;11.784;2022-11-27T02:05:52;12.30;;;7.70;;
69551;SDS011;63774;45.292;11.784;2022-11-27T02:08:17;14.30;;;8.20;;
69551;SDS011;63774;45.292;11.784;2022-11-27T02:10:47;12.50;;;7.70;;
69551;SDS011;63774;45.292;11.784;2022-11-27T02:13:19;11.90;;;7.70;;
69551;SDS011;63774;45.292;11.784;2022-11-27T02:29:25;12.30;;;7.40;;
69551;SDS011;63774;45.292;11.784;2022-11-27T02:37:37;10.10;;;6.70;;
69551;SDS011;63774;45.292;11.784;2022-11-27T02:40:11;12.10;;;7.40;;
69551;SDS011;63774;45.292;11.784;2022-11-27T02:45:14;10.80;;;6.90;;
69551;SDS011;63774;45.292;11.784;2022-11-27T02:47:43;12.40;;;6.90;;
69551;SDS011;63774;45.292;11.784;2022-11-27T02:50:11;9.10;;;6.30;;
69551;SDS011;63774;45.292;11.784;2022-11-27T02:52:41;9.80;;;6.60;;
69551;SDS011;63774;45.292;11.784;2022-11-27T02:55:10;9.00;;;6.70;;
69551;SDS011;63774;45.292;11.784;2022-11-27T02:57:41;9.90;;;6.60;;
69551;SDS011;63774;45.292;11.784;2022-11-27T03:00:08;10.10;;;6.80;;
69551;SDS011;63774;45.292;11.784;2022-11-27T03:02:35;10.80;;;6.30;;
69551;SDS011;63774;45.292;11.784;2022-11-27T03:05:05;9.00;;;6.10;;
69551;SDS011;63774;45.292;11.784;2022-11-27T03:07:40;8.90;;;6.10;;
69551;SDS011;63774;45.292;11.784;2022-11-27T03:10:09;10.80;;;6.30;;
69551;SDS011;63774;45.292;11.784;2022-11-27T03:12:43;9.50;;;6.20;;
69551;SDS011;63774;45.292;11.784;2022-11-27T03:15:10;9.30;;;5.90;;
69551;SDS011;63774;45.292;11.784;2022-11-27T03:17:56;8.50;;;5.70;;
69551;SDS011;63774;45.292;11.784;2022-11-27T03:20:37;8.80;;;5.80;;
69551;SDS011;63774;45.292;11.784;2022-11-27T03:23:05;8.70;;;6.00;;
69551;SDS011;63774;45.292;11.784;2022-11-27T03:25:30;9.60;;;6.00;;
69551;SDS011;63774;45.292;11.784;2022-11-27T03:28:04;8.90;;;5.50;;
69551;SDS011;63774;45.292;11.784;2022-11-27T03:30:32;9.10;;;5.90;;
69551;SDS011;63774;45.292;11.784;2022-11-27T03:32:57;7.60;;;5.40;;
69551;SDS011;63774;45.292;11.784;2022-11-27T03:35:24;8.10;;;5.80;;
69551;SDS011;63774;45.292;11.784;2022-11-27T03:37:51;9.10;;;5.70;;
69551;SDS011;63774;45.292;11.784;2022-11-27T03:40:16;9.00;;;5.70;;
69551;SDS011;63774;45.292;11.784;2022-11-27T03:54:13;8.80;;;5.30;;
69551;SDS011;63774;45.292;11.784;2022-11-27T03:57:09;8.90;;;5.80;;
69551;SDS011;63774;45.292;11.784;2022-11-27T03:59:52;7.40;;;5.20;;
69551;SDS011;63774;45.292;11.784;2022-11-27T04:02:29;7.20;;;5.20;;
69551;SDS011;63774;45.292;11.784;2022-11-27T04:05:03;7.80;;;5.20;;
69551;SDS011;63774;45.292;11.784;2022-11-27T04:07:28;7.90;;;5.10;;
69551;SDS011;63774;45.292;11.784;2022-11-27T04:09:54;9.70;;;5.30;;
69551;SDS011;63774;45.292;11.784;2022-11-27T04:12:19;7.20;;;5.30;;
69551;SDS011;63774;45.292;11.784;2022-11-27T04:14:44;7.60;;;5.00;;
69551;SDS011;63774;45.292;11.784;2022-11-27T04:17:10;7.60;;;5.30;;
69551;SDS011;63774;45.292;11.784;2022-11-27T04:19:36;7.90;;;5.10;;
69551;SDS011;63774;45.292;11.784;2022-11-27T04:22:01;6.50;;;4.50;;
69551;SDS011;63774;45.292;11.784;2022-11-27T04:24:27;7.00;;;4.80;;
69551;SDS011;63774;45.292;11.784;2022-11-27T04:26:52;6.80;;;4.60;;
69551;SDS011;63774;45.292;11.784;2022-11-27T04:29:17;6.30;;;4.50;;
69551;SDS011;63774;45.292;11.784;2022-11-27T04:31:43;7.30;;;4.90;;
69551;SDS011;63774;45.292;11.784;2022-11-27T04:34:11;7.30;;;4.90;;
69551;SDS011;63774;45.292;11.784;2022-11-27T04:36:37;6.40;;;4.70;;
69551;SDS011;63774;45.292;11.784;2022-11-27T04:39:02;6.80;;;4.70;;
69551;SDS011;63774;45.292;11.784;2022-11-27T04:41:28;6.70;;;4.40;;
69551;SDS011;63774;45.292;11.784;2022-11-27T04:43:53;6.70;;;4.50;;
69551;SDS011;63774;45.292;11.784;2022-11-27T04:46:19;6.20;;;4.40;;
69551;SDS011;63774;45.292;11.784;2022-11-27T04:48:45;8.10;;;4.80;;
69551;SDS011;63774;45.292;11.784;2022-11-27T04:51:11;6.90;;;4.40;;
69551;SDS011;63774;45.292;11.784;2022-11-27T04:53:36;8.10;;;4.30;;
69551;SDS011;63774;45.292;11.784;2022-11-27T04:56:02;6.90;;;4.40;;
69551;SDS011;63774;45.292;11.784;2022-11-27T04:58:27;5.90;;;4.20;;
69551;SDS011;63774;45.292;11.784;2022-11-27T05:00:53;7.00;;;4.40;;
69551;SDS011;63774;45.292;11.784;2022-11-27T05:03:18;5.70;;;4.00;;
69551;SDS011;63774;45.292;11.784;2022-11-27T05:05:44;6.50;;;4.30;;
69551;SDS011;63774;45.292;11.784;2022-11-27T05:08:09;6.30;;;4.00;;
69551;SDS011;63774;45.292;11.784;2022-11-27T05:10:35;6.30;;;4.30;;
69551;SDS011;63774;45.292;11.784;2022-11-27T05:13:00;7.30;;;4.50;;
69551;SDS011;63774;45.292;11.784;2022-11-27T05:15:25;6.60;;;4.20;;
69551;SDS011;63774;45.292;11.784;2022-11-27T05:17:51;6.30;;;4.00;;
69551;SDS011;63774;45.292;11.784;2022-11-27T05:20:16;5.90;;;4.00;;
69551;SDS011;63774;45.292;11.784;2022-11-27T05:22:41;6.50;;;4.40;;
69551;SDS011;63774;45.292;11.784;2022-11-27T05:25:08;5.80;;;3.80;;
69551;SDS011;63774;45.292;11.784;2022-11-27T05:27:33;6.10;;;4.00;;
69551;SDS011;63774;45.292;11.784;2022-11-27T05:29:59;6.10;;;3.90;;
69551;SDS011;63774;45.292;11.784;2022-11-27T05:32:24;5.70;;;3.80;;
69551;SDS011;63774;45.292;11.784;2022-11-27T05:34:49;5.70;;;3.80;;
69551;SDS011;63774;45.292;11.784;2022-11-27T05:37:15;5.70;;;4.10;;
69551;SDS011;63774;45.292;11.784;2022-11-27T05:39:40;6.30;;;4.30;;
69551;SDS011;63774;45.292;11.784;2022-11-27T05:42:06;5.40;;;3.90;;
69551;SDS011;63774;45.292;11.784;2022-11-27T05:44:31;5.00;;;3.50;;
69551;SDS011;63774;45.292;11.784;2022-11-27T05:46:57;5.90;;;3.90;;
69551;SDS011;63774;45.292;11.784;2022-11-27T05:49:22;6.20;;;4.00;;
69551;SDS011;63774;45.292;11.784;2022-11-27T05:51:48;5.70;;;3.90;;
69551;SDS011;63774;45.292;11.784;2022-11-27T05:54:13;5.30;;;3.50;;
69551;SDS011;63774;45.292;11.784;2022-11-27T05:56:39;5.60;;;3.70;;
69551;SDS011;63774;45.292;11.784;2022-11-27T05:59:04;5.40;;;3.50;;
69551;SDS011;63774;45.292;11.784;2022-11-27T06:01:30;6.50;;;3.70;;
69551;SDS011;63774;45.292;11.784;2022-11-27T06:03:55;5.00;;;3.50;;
69551;SDS011;63774;45.292;11.784;2022-11-27T06:06:20;5.60;;;3.60;;
69551;SDS011;63774;45.292;11.784;2022-11-27T06:08:46;4.70;;;3.30;;
69551;SDS011;63774;45.292;11.784;2022-11-27T06:11:13;5.20;;;3.40;;
69551;SDS011;63774;45.292;11.784;2022-11-27T06:13:44;5.20;;;3.50;;
69551;SDS011;63774;45.292;11.784;2022-11-27T06:16:11;4.70;;;3.10;;
69551;SDS011;63774;45.292;11.784;2022-11-27T06:18:55;5.40;;;3.30;;
69551;SDS011;63774;45.292;11.784;2022-11-27T06:21:21;5.30;;;3.50;;
69551;SDS011;63774;45.292;11.784;2022-11-27T06:23:48;4.90;;;3.20;;
69551;SDS011;63774;45.292;11.784;2022-11-27T06:26:20;4.50;;;3.10;;
69551;SDS011;63774;45.292;11.784;2022-11-27T06:28:49;4.50;;;3.20;;
69551;SDS011;63774;45.292;11.784;2022-11-27T06:31:16;5.40;;;3.40;;
69551;SDS011;63774;45.292;11.784;2022-11-27T06:33:43;4.60;;;3.40;;
69551;SDS011;63774;45.292;11.784;2022-11-27T06:36:10;4.80;;;3.10;;
69551;SDS011;63774;45.292;11.784;2022-11-27T06:38:35;4.70;;;3.00;;
69551;SDS011;63774;45.292;11.784;2022-11-27T06:41:06;4.60;;;3.20;;
69551;SDS011;63774;45.292;11.784;2022-11-27T06:43:33;4.50;;;2.90;;
69551;SDS011;63774;45.292;11.784;2022-11-27T06:46:00;5.10;;;3.30;;
69551;SDS011;63774;45.292;11.784;2022-11-27T06:48:26;5.10;;;3.00;;
69551;SDS011;63774;45.292;11.784;2022-11-27T06:50:51;4.50;;;3.30;;
69551;SDS011;63774;45.292;11.784;2022-11-27T06:53:17;4.80;;;3.10;;
69551;SDS011;63774;45.292;11.784;2022-11-27T06:55:43;4.80;;;3.00;;
69551;SDS011;63774;45.292;11.784;2022-11-27T06:58:09;4.80;;;3.10;;
69551;SDS011;63774;45.292;11.784;2022-11-27T07:00:35;5.00;;;3.10;;
69551;SDS011;63774;45.292;11.784;2022-11-27T07:03:00;4.70;;;2.80;;
69551;SDS011;63774;45.292;11.784;2022-11-27T07:05:25;4.30;;;2.70;;
69551;SDS011;63774;45.292;11.784;2022-11-27T07:07:51;4.00;;;2.80;;
69551;SDS011;63774;45.292;11.784;2022-11-27T07:10:16;3.90;;;2.60;;
69551;SDS011;63774;45.292;11.784;2022-11-27T07:12:42;4.30;;;2.80;;
69551;SDS011;63774;45.292;11.784;2022-11-27T07:15:07;5.20;;;2.80;;
69551;SDS011;63774;45.292;11.784;2022-11-27T07:17:33;4.80;;;3.00;;
69551;SDS011;63774;45.292;11.784;2022-11-27T07:19:58;4.60;;;2.90;;
69551;SDS011;63774;45.292;11.784;2022-11-27T07:22:24;5.00;;;2.90;;
69551;SDS011;63774;45.292;11.784;2022-11-27T07:24:49;4.30;;;3.00;;
69551;SDS011;63774;45.292;11.784;2022-11-27T07:27:15;3.50;;;2.30;;
69551;SDS011;63774;45.292;11.784;2022-11-27T07:29:40;4.20;;;2.70;;
69551;SDS011;63774;45.292;11.784;2022-11-27T07:32:05;5.00;;;3.00;;
69551;SDS011;63774;45.292;11.784;2022-11-27T07:34:31;3.70;;;2.50;;
69551;SDS011;63774;45.292;11.784;2022-11-27T07:36:56;4.10;;;2.60;;
69551;SDS011;63774;45.292;11.784;2022-11-27T07:39:22;3.90;;;2.50;;
69551;SDS011;63774;45.292;11.784;2022-11-27T07:41:47;3.40;;;2.40;;
69551;SDS011;63774;45.292;11.784;2022-11-27T07:44:12;4.20;;;2.60;;
69551;SDS011;63774;45.292;11.784;2022-11-27T07:46:38;3.50;;;2.50;;
69551;SDS011;63774;45.292;11.784;2022-11-27T07:49:03;3.70;;;2.30;;
69551;SDS011;63774;45.292;11.784;2022-11-27T07:51:29;4.20;;;2.30;;
69551;SDS011;63774;45.292;11.784;2022-11-27T07:53:54;4.40;;;2.50;;
69551;SDS011;63774;45.292;11.784;2022-11-27T07:56:20;3.50;;;2.30;;
69551;SDS011;63774;45.292;11.784;2022-11-27T07:58:46;3.60;;;2.30;;
69551;SDS011;63774;45.292;11.784;2022-11-27T08:01:14;3.70;;;2.10;;
69551;SDS011;63774;45.292;11.784;2022-11-27T08:03:41;4.10;;;2.50;;
69551;SDS011;63774;45.292;11.784;2022-11-27T08:06:13;3.80;;;2.30;;
69551;SDS011;63774;45.292;11.784;2022-11-27T08:08:42;3.90;;;2.40;;
69551;SDS011;63774;45.292;11.784;2022-11-27T08:11:17;3.00;;;2.30;;
69551;SDS011;63774;45.292;11.784;2022-11-27T08:13:45;2.90;;;2.20;;
69551;SDS011;63774;45.292;11.784;2022-11-27T08:16:10;3.00;;;2.10;;
69551;SDS011;63774;45.292;11.784;2022-11-27T08:18:36;3.70;;;2.50;;
69551;SDS011;63774;45.292;11.784;2022-11-27T08:21:01;3.40;;;2.10;;
69551;SDS011;63774;45.292;11.784;2022-11-27T08:23:27;3.50;;;2.40;;
69551;SDS011;63774;45.292;11.784;2022-11-27T08:25:52;3.00;;;2.10;;
69551;SDS011;63774;45.292;11.784;2022-11-27T08:28:18;4.10;;;2.20;;
69551;SDS011;63774;45.292;11.784;2022-11-27T08:30:43;3.50;;;2.30;;
69551;SDS011;63774;45.292;11.784;2022-11-27T08:33:11;3.90;;;2.20;;
69551;SDS011;63774;45.292;11.784;2022-11-27T08:35:36;3.10;;;2.10;;
69551;SDS011;63774;45.292;11.784;2022-11-27T08:38:02;3.80;;;2.40;;
69551;SDS011;63774;45.292;11.784;2022-11-27T08:40:27;3.00;;;1.90;;
69551;SDS011;63774;45.292;11.784;2022-11-27T08:42:53;3.10;;;2.00;;
69551;SDS011;63774;45.292;11.784;2022-11-27T08:45:18;3.60;;;1.90;;
69551;SDS011;63774;45.292;11.784;2022-11-27T08:47:43;3.10;;;2.00;;
69551;SDS011;63774;45.292;11.784;2022-11-27T08:50:09;3.50;;;2.30;;
69551;SDS011;63774;45.292;11.784;2022-11-27T08:52:34;3.20;;;2.10;;
69551;SDS011;63774;45.292;11.784;2022-11-27T08:55:00;4.20;;;2.30;;
69551;SDS011;63774;45.292;11.784;2022-11-27T08:57:25;2.80;;;2.20;;
69551;SDS011;63774;45.292;11.784;2022-11-27T08:59:51;3.90;;;2.10;;
69551;SDS011;63774;45.292;11.784;2022-11-27T09:02:16;3.60;;;2.10;;
69551;SDS011;63774;45.292;11.784;2022-11-27T09:04:42;3.40;;;2.00;;
69551;SDS011;63774;45.292;11.784;2022-11-27T09:07:07;2.90;;;1.90;;
69551;SDS011;63774;45.292;11.784;2022-11-27T09:09:35;4.00;;;2.00;;
69551;SDS011;63774;45.292;11.784;2022-11-27T09:12:01;3.70;;;2.00;;
69551;SDS011;63774;45.292;11.784;2022-11-27T09:14:26;3.30;;;2.20;;
69551;SDS011;63774;45.292;11.784;2022-11-27T09:16:52;2.50;;;1.80;;
69551;SDS011;63774;45.292;11.784;2022-11-27T09:19:17;3.80;;;2.30;;
69551;SDS011;63774;45.292;11.784;2022-11-27T09:21:43;3.10;;;1.90;;
69551;SDS011;63774;45.292;11.784;2022-11-27T09:24:09;3.20;;;2.00;;
69551;SDS011;63774;45.292;11.784;2022-11-27T09:26:34;3.20;;;2.00;;
69551;SDS011;63774;45.292;11.784;2022-11-27T09:29:00;3.30;;;2.10;;
69551;SDS011;63774;45.292;11.784;2022-11-27T09:31:25;2.80;;;1.90;;
69551;SDS011;63774;45.292;11.784;2022-11-27T09:33:51;2.90;;;1.80;;
69551;SDS011;63774;45.292;11.784;2022-11-27T09:36:21;3.00;;;1.80;;
69551;SDS011;63774;45.292;11.784;2022-11-27T09:38:49;2.60;;;1.90;;
69551;SDS011;63774;45.292;11.784;2022-11-27T09:46:53;2.60;;;1.70;;
69551;SDS011;63774;45.292;11.784;2022-11-27T09:49:32;3.30;;;2.00;;
69551;SDS011;63774;45.292;11.784;2022-11-27T09:57:26;2.90;;;1.90;;
69551;SDS011;63774;45.292;11.784;2022-11-27T09:59:55;2.80;;;1.70;;
69551;SDS011;63774;45.292;11.784;2022-11-27T10:02:32;2.40;;;1.80;;
69551;SDS011;63774;45.292;11.784;2022-11-27T10:04:59;2.80;;;1.80;;
69551;SDS011;63774;45.292;11.784;2022-11-27T10:13:17;3.40;;;1.70;;
69551;SDS011;63774;45.292;11.784;2022-11-27T10:18:50;2.80;;;1.80;;
69551;SDS011;63774;45.292;11.784;2022-11-27T10:26:55;3.10;;;1.60;;
69551;SDS011;63774;45.292;11.784;2022-11-27T10:32:12;3.70;;;2.10;;
69551;SDS011;63774;45.292;11.784;2022-11-27T10:34:44;3.80;;;1.90;;
69551;SDS011;63774;45.292;11.784;2022-11-27T10:37:17;2.60;;;1.80;;
69551;SDS011;63774;45.292;11.784;2022-11-27T10:39:47;3.00;;;1.80;;
69551;SDS011;63774;45.292;11.784;2022-11-27T10:42:41;3.10;;;1.80;;
69551;SDS011;63774;45.292;11.784;2022-11-27T10:45:21;2.90;;;2.00;;
69551;SDS011;63774;45.292;11.784;2022-11-27T10:47:48;4.50;;;2.00;;
69551;SDS011;63774;45.292;11.784;2022-11-27T10:50:14;3.20;;;2.00;;
69551;SDS011;63774;45.292;11.784;2022-11-27T10:53:00;2.90;;;2.10;;
69551;SDS011;63774;45.292;11.784;2022-11-27T10:55:41;5.00;;;2.90;;
69551;SDS011;63774;45.292;11.784;2022-11-27T10:58:24;5.70;;;3.30;;
69551;SDS011;63774;45.292;11.784;2022-11-27T11:01:04;5.10;;;3.50;;
69551;SDS011;63774;45.292;11.784;2022-11-27T11:03:32;6.60;;;3.60;;
69551;SDS011;63774;45.292;11.784;2022-11-27T11:05:59;6.70;;;4.00;;
69551;SDS011;63774;45.292;11.784;2022-11-27T11:08:29;8.10;;;3.90;;
69551;SDS011;63774;45.292;11.784;2022-11-27T11:11:01;5.90;;;4.00;;
69551;SDS011;63774;45.292;11.784;2022-11-27T11:13:29;5.20;;;3.80;;
69551;SDS011;63774;45.292;11.784;2022-11-27T11:16:02;7.00;;;4.10;;
69551;SDS011;63774;45.292;11.784;2022-11-27T11:18:50;7.40;;;4.00;;
69551;SDS011;63774;45.292;11.784;2022-11-27T11:26:32;6.40;;;4.30;;
69551;SDS011;63774;45.292;11.784;2022-11-27T11:29:02;6.20;;;4.40;;
69551;SDS011;63774;45.292;11.784;2022-11-27T11:31:37;7.50;;;4.70;;
69551;SDS011;63774;45.292;11.784;2022-11-27T11:34:04;5.60;;;4.00;;
69551;SDS011;63774;45.292;11.784;2022-11-27T11:36:54;5.10;;;3.80;;
69551;SDS011;63774;45.292;11.784;2022-11-27T11:39:24;5.80;;;3.70;;
69551;SDS011;63774;45.292;11.784;2022-11-27T11:41:52;5.00;;;3.80;;
69551;SDS011;63774;45.292;11.784;2022-11-27T11:44:28;5.20;;;3.70;;
69551;SDS011;63774;45.292;11.784;2022-11-27T11:46:59;5.40;;;3.60;;
69551;SDS011;63774;45.292;11.784;2022-11-27T11:49:25;5.20;;;3.70;;
69551;SDS011;63774;45.292;11.784;2022-11-27T12:00:04;5.40;;;3.20;;
69551;SDS011;63774;45.292;11.784;2022-11-27T12:02:39;5.20;;;3.10;;
69551;SDS011;63774;45.292;11.784;2022-11-27T12:10:59;4.60;;;2.90;;
69551;SDS011;63774;45.292;11.784;2022-11-27T12:18:54;6.20;;;2.60;;
69551;SDS011;63774;45.292;11.784;2022-11-27T12:21:25;3.70;;;2.30;;
69551;SDS011;63774;45.292;11.784;2022-11-27T12:24:08;3.80;;;2.40;;
69551;SDS011;63774;45.292;11.784;2022-11-27T12:29:55;4.40;;;2.40;;
69551;SDS011;63774;45.292;11.784;2022-11-27T12:43:50;3.80;;;2.10;;
69551;SDS011;63774;45.292;11.784;2022-11-27T12:46:25;3.80;;;2.30;;
69551;SDS011;63774;45.292;11.784;2022-11-27T12:49:20;3.60;;;2.10;;
69551;SDS011;63774;45.292;11.784;2022-11-27T12:51:47;4.80;;;2.00;;
69551;SDS011;63774;45.292;11.784;2022-11-27T12:56:59;4.30;;;2.30;;
69551;SDS011;63774;45.292;11.784;2022-11-27T12:59:30;3.70;;;2.20;;
69551;SDS011;63774;45.292;11.784;2022-11-27T13:10:04;4.10;;;2.10;;
69551;SDS011;63774;45.292;11.784;2022-11-27T13:12:35;4.40;;;2.00;;
69551;SDS011;63774;45.292;11.784;2022-11-27T13:15:07;2.90;;;1.80;;
69551;SDS011;63774;45.292;11.784;2022-11-27T13:17:42;3.50;;;2.10;;
69551;SDS011;63774;45.292;11.784;2022-11-27T13:20:14;4.00;;;2.00;;
69551;SDS011;63774;45.292;11.784;2022-11-27T13:22:43;2.40;;;1.60;;
69551;SDS011;63774;45.292;11.784;2022-11-27T13:25:11;3.80;;;2.10;;
69551;SDS011;63774;45.292;11.784;2022-11-27T13:27:40;3.30;;;2.00;;
69551;SDS011;63774;45.292;11.784;2022-11-27T13:30:15;4.70;;;1.80;;
69551;SDS011;63774;45.292;11.784;2022-11-27T13:32:51;3.60;;;1.90;;
69551;SDS011;63774;45.292;11.784;2022-11-27T13:37:53;2.70;;;1.70;;
69551;SDS011;63774;45.292;11.784;2022-11-27T13:40:30;2.90;;;1.90;;
69551;SDS011;63774;45.292;11.784;2022-11-27T13:43:03;3.80;;;2.00;;
69551;SDS011;63774;45.292;11.784;2022-11-27T13:45:33;4.10;;;1.90;;
69551;SDS011;63774;45.292;11.784;2022-11-27T13:48:01;5.10;;;2.10;;
69551;SDS011;63774;45.292;11.784;2022-11-27T13:50:44;4.30;;;1.80;;
69551;SDS011;63774;45.292;11.784;2022-11-27T13:53:10;2.90;;;1.60;;
69551;SDS011;63774;45.292;11.784;2022-11-27T13:55:51;3.90;;;1.90;;
69551;SDS011;63774;45.292;11.784;2022-11-27T13:58:26;2.70;;;1.70;;
69551;SDS011;63774;45.292;11.784;2022-11-27T14:00:53;4.00;;;1.90;;
69551;SDS011;63774;45.292;11.784;2022-11-27T14:03:29;3.20;;;1.70;;
69551;SDS011;63774;45.292;11.784;2022-11-27T14:05:55;3.10;;;1.60;;
69551;SDS011;63774;45.292;11.784;2022-11-27T14:08:32;2.50;;;1.50;;
69551;SDS011;63774;45.292;11.784;2022-11-27T14:11:09;3.20;;;1.70;;
69551;SDS011;63774;45.292;11.784;2022-11-27T14:16:29;3.10;;;2.10;;
69551;SDS011;63774;45.292;11.784;2022-11-27T14:19:05;3.50;;;2.00;;
69551;SDS011;63774;45.292;11.784;2022-11-27T14:21:46;3.70;;;2.10;;
69551;SDS011;63774;45.292;11.784;2022-11-27T14:27:05;3.30;;;1.80;;
69551;SDS011;63774;45.292;11.784;2022-11-27T14:29:40;2.80;;;1.60;;
69551;SDS011;63774;45.292;11.784;2022-11-27T14:32:10;2.70;;;1.60;;
69551;SDS011;63774;45.292;11.784;2022-11-27T14:34:37;3.00;;;1.60;;
69551;SDS011;63774;45.292;11.784;2022-11-27T14:37:03;3.60;;;2.00;;
69551;SDS011;63774;45.292;11.784;2022-11-27T14:39:29;3.40;;;1.70;;
69551;SDS011;63774;45.292;11.784;2022-11-27T14:41:58;3.20;;;1.60;;
69551;SDS011;63774;45.292;11.784;2022-11-27T14:44:26;3.30;;;1.80;;
69551;SDS011;63774;45.292;11.784;2022-11-27T14:46:53;3.00;;;1.70;;
69551;SDS011;63774;45.292;11.784;2022-11-27T14:49:23;4.10;;;1.60;;
69551;SDS011;63774;45.292;11.784;2022-11-27T14:51:51;3.20;;;1.90;;
69551;SDS011;63774;45.292;11.784;2022-11-27T14:54:22;2.90;;;1.70;;
69551;SDS011;63774;45.292;11.784;2022-11-27T14:56:50;3.10;;;1.70;;
69551;SDS011;63774;45.292;11.784;2022-11-27T14:59:17;2.30;;;1.60;;
69551;SDS011;63774;45.292;11.784;2022-11-27T15:01:45;3.00;;;1.70;;
69551;SDS011;63774;45.292;11.784;2022-11-27T15:04:24;4.40;;;2.10;;
69551;SDS011;63774;45.292;11.784;2022-11-27T15:06:51;4.30;;;2.10;;
69551;SDS011;63774;45.292;11.784;2022-11-27T15:09:22;3.30;;;2.10;;
69551;SDS011;63774;45.292;11.784;2022-11-27T15:12:04;3.10;;;2.00;;
69551;SDS011;63774;45.292;11.784;2022-11-27T15:14:43;3.80;;;2.20;;
69551;SDS011;63774;45.292;11.784;2022-11-27T15:17:18;4.40;;;2.60;;
69551;SDS011;63774;45.292;11.784;2022-11-27T15:19:50;3.30;;;2.30;;
69551;SDS011;63774;45.292;11.784;2022-11-27T15:22:16;4.30;;;2.40;;
69551;SDS011;63774;45.292;11.784;2022-11-27T15:24:44;5.40;;;2.70;;
69551;SDS011;63774;45.292;11.784;2022-11-27T15:29:38;5.00;;;2.50;;
69551;SDS011;63774;45.292;11.784;2022-11-27T15:32:16;4.30;;;2.30;;
69551;SDS011;63774;45.292;11.784;2022-11-27T15:34:44;4.60;;;2.60;;
69551;SDS011;63774;45.292;11.784;2022-11-27T15:39:51;5.10;;;2.80;;
69551;SDS011;63774;45.292;11.784;2022-11-27T15:42:21;5.10;;;2.90;;
69551;SDS011;63774;45.292;11.784;2022-11-27T15:44:48;5.70;;;2.80;;
69551;SDS011;63774;45.292;11.784;2022-11-27T15:47:27;4.90;;;3.10;;
69551;SDS011;63774;45.292;11.784;2022-11-27T15:49:55;4.40;;;2.80;;
69551;SDS011;63774;45.292;11.784;2022-11-27T15:52:21;5.20;;;3.20;;
69551;SDS011;63774;45.292;11.784;2022-11-27T15:54:47;5.90;;;3.40;;
69551;SDS011;63774;45.292;11.784;2022-11-27T15:57:13;4.90;;;3.10;;
69551;SDS011;63774;45.292;11.784;2022-11-27T15:59:40;5.60;;;3.70;;
69551;SDS011;63774;45.292;11.784;2022-11-27T16:02:06;5.20;;;3.60;;
69551;SDS011;63774;45.292;11.784;2022-11-27T16:04:34;6.00;;;3.50;;
69551;SDS011;63774;45.292;11.784;2022-11-27T16:06:59;6.60;;;3.90;;
69551;SDS011;63774;45.292;11.784;2022-11-27T16:09:25;7.80;;;4.70;;
69551;SDS011;63774;45.292;11.784;2022-11-27T16:11:50;9.90;;;5.10;;
69551;SDS011;63774;45.292;11.784;2022-11-27T16:14:16;8.30;;;4.70;;
69551;SDS011;63774;45.292;11.784;2022-11-27T16:16:42;9.80;;;5.00;;
69551;SDS011;63774;45.292;11.784;2022-11-27T16:19:08;9.20;;;5.20;;
69551;SDS011;63774;45.292;11.784;2022-11-27T16:21:36;8.80;;;4.60;;
69551;SDS011;63774;45.292;11.784;2022-11-27T16:24:06;8.30;;;4.60;;
69551;SDS011;63774;45.292;11.784;2022-11-27T16:26:37;10.00;;;6.10;;
69551;SDS011;63774;45.292;11.784;2022-11-27T16:29:04;10.30;;;6.00;;
69551;SDS011;63774;45.292;11.784;2022-11-27T16:31:31;13.00;;;6.50;;
69551;SDS011;63774;45.292;11.784;2022-11-27T16:33:57;12.30;;;6.80;;
69551;SDS011;63774;45.292;11.784;2022-11-27T16:36:26;11.00;;;6.20;;
69551;SDS011;63774;45.292;11.784;2022-11-27T16:38:53;14.80;;;7.10;;
69551;SDS011;63774;45.292;11.784;2022-11-27T16:41:21;12.50;;;7.20;;
69551;SDS011;63774;45.292;11.784;2022-11-27T16:43:48;12.70;;;7.60;;
69551;SDS011;63774;45.292;11.784;2022-11-27T16:46:16;12.70;;;7.10;;
69551;SDS011;63774;45.292;11.784;2022-11-27T16:48:44;12.50;;;6.90;;
69551;SDS011;63774;45.292;11.784;2022-11-27T16:51:21;11.80;;;7.20;;